createdAt,value
2023-03-25T00:02:06.439Z,100.00
2023-03-25T00:04:35.180Z,100.00
2023-03-25T00:07:02.523Z,100.00
2023-03-25T00:09:28.982Z,100.00
2023-03-25T00:11:55.659Z,100.00
2023-03-25T00:14:22.106Z,100.00
2023-03-25T00:16:48.798Z,100.00
2023-03-25T00:19:18.324Z,100.00
2023-03-25T00:21:44.802Z,100.00
2023-03-25T00:24:12.408Z,100.00
2023-03-25T00:26:42.742Z,100.00
2023-03-25T00:29:09.805Z,100.00
2023-03-25T00:31:36.330Z,100.00
2023-03-25T00:34:02.806Z,100.00
2023-03-25T00:36:29.623Z,100.00
2023-03-25T00:38:56.167Z,100.00
2023-03-25T00:41:26.028Z,100.00
2023-03-25T00:43:57.954Z,100.00
2023-03-25T00:46:29.501Z,100.00
2023-03-25T00:48:57.157Z,100.00
2023-03-25T00:51:25.753Z,100.00
2023-03-25T00:53:54.887Z,100.00
2023-03-25T00:56:22.589Z,100.00
2023-03-25T00:58:50.339Z,100.00
2023-03-25T01:01:23.356Z,100.00
2023-03-25T01:03:57.978Z,100.00
2023-03-25T01:06:32.214Z,100.00
2023-03-25T01:09:00.484Z,100.00
2023-03-25T01:11:30.267Z,100.00
2023-03-25T01:13:59.745Z,100.00
2023-03-25T01:16:26.601Z,100.00
2023-03-25T01:18:54.898Z,100.00
2023-03-25T01:21:21.401Z,98.96
2023-03-25T01:23:47.963Z,98.99
2023-03-25T01:26:14.716Z,99.42
2023-03-25T01:28:43.204Z,98.91
2023-03-25T01:31:13.719Z,98.37
2023-03-25T01:33:40.599Z,98.17
2023-03-25T01:36:12.709Z,97.25
2023-03-25T01:38:40.528Z,97.91
2023-03-25T01:41:08.275Z,97.61
2023-03-25T01:43:34.964Z,100.00
2023-03-25T01:46:01.982Z,99.46
2023-03-25T01:48:35.803Z,100.00
2023-03-25T01:51:11.568Z,97.96
2023-03-25T01:53:39.112Z,98.19
2023-03-25T01:56:06.799Z,98.27
2023-03-25T01:58:35.562Z,99.74
2023-03-25T02:01:03.477Z,96.46
2023-03-25T02:03:31.478Z,96.58
2023-03-25T02:06:05.855Z,98.03
2023-03-25T02:08:37.684Z,97.96
2023-03-25T02:11:06.725Z,96.73
2023-03-25T02:13:36.683Z,96.28
2023-03-25T02:16:18.525Z,95.93
2023-03-25T02:19:14.486Z,97.22
2023-03-25T02:22:04.585Z,96.54
2023-03-25T02:25:01.915Z,97.55
2023-03-25T02:27:50.267Z,94.96
2023-03-25T02:30:38.859Z,97.56
2023-03-25T02:33:16.917Z,95.59
2023-03-25T02:36:04.857Z,96.22
2023-03-25T02:38:49.858Z,94.10
2023-03-25T02:41:21.160Z,93.37
2023-03-25T02:44:00.132Z,94.08
2023-03-25T02:46:28.190Z,92.51
2023-03-25T02:49:15.479Z,94.17
2023-03-25T02:51:49.643Z,93.51
2023-03-25T02:54:19.190Z,93.84
2023-03-25T02:56:48.436Z,94.40
2023-03-25T02:59:15.679Z,92.65
2023-03-25T03:01:42.626Z,92.98
2023-03-25T03:04:09.172Z,95.68
2023-03-25T03:06:39.910Z,96.00
2023-03-25T03:09:22.923Z,95.96
2023-03-25T03:12:25.859Z,94.62
2023-03-25T03:15:10.738Z,95.45
2023-03-25T03:18:07.824Z,94.78
2023-03-25T03:20:41.202Z,94.85
2023-03-25T03:23:17.974Z,93.34
2023-03-25T03:25:51.402Z,93.59
2023-03-25T03:28:27.770Z,92.88
2023-03-25T03:31:11.350Z,95.25
2023-03-25T03:33:53.936Z,94.03
2023-03-25T03:36:25.172Z,93.89
2023-03-25T03:39:16.571Z,96.05
2023-03-25T03:41:46.551Z,96.86
2023-03-25T03:44:18.796Z,96.88
2023-03-25T03:46:55.250Z,99.53
2023-03-25T03:49:29.429Z,97.62
2023-03-25T03:52:17.005Z,99.27
2023-03-25T03:54:54.572Z,99.02
2023-03-25T03:57:27.029Z,99.33
2023-03-25T04:00:06.744Z,99.65
2023-03-25T04:02:47.807Z,100.00
2023-03-25T04:05:17.658Z,99.47
2023-03-25T04:07:54.699Z,99.17
2023-03-25T04:10:23.099Z,99.99
2023-03-25T04:12:54.051Z,100.00
2023-03-25T04:15:21.404Z,100.00
2023-03-25T04:17:50.784Z,100.00
2023-03-25T04:20:26.254Z,98.97
2023-03-25T04:22:52.891Z,99.94
2023-03-25T04:25:21.410Z,98.60
2023-03-25T04:27:53.694Z,97.35
2023-03-25T04:30:21.159Z,98.00
2023-03-25T04:32:47.809Z,97.48
2023-03-25T04:35:19.215Z,95.29
2023-03-25T04:37:48.855Z,95.87
2023-03-25T04:40:18.648Z,95.91
2023-03-25T04:42:46.451Z,96.66
2023-03-25T04:45:16.493Z,94.55
2023-03-25T04:47:47.057Z,94.83
2023-03-25T04:50:23.379Z,97.49
2023-03-25T04:52:51.055Z,97.85
2023-03-25T04:55:19.299Z,97.80
2023-03-25T04:57:47.517Z,96.67
2023-03-25T05:00:16.010Z,98.55
2023-03-25T05:02:47.886Z,96.29
2023-03-25T05:05:18.898Z,95.40
2023-03-25T05:07:47.156Z,96.34
2023-03-25T05:10:14.157Z,96.67
2023-03-25T05:12:40.799Z,94.82
2023-03-25T05:15:09.265Z,94.81
2023-03-25T05:17:35.850Z,95.46
2023-03-25T05:20:06.086Z,95.70
2023-03-25T05:22:32.744Z,94.49
2023-03-25T05:24:59.159Z,95.26
2023-03-25T05:27:25.795Z,94.86
2023-03-25T05:29:52.306Z,95.44
2023-03-25T05:32:18.733Z,95.29
2023-03-25T05:34:48.687Z,96.35
2023-03-25T05:37:15.239Z,93.87
2023-03-25T05:39:42.735Z,93.66
2023-03-25T05:42:10.804Z,95.45
2023-03-25T05:44:38.665Z,92.32
2023-03-25T05:47:06.036Z,91.61
2023-03-25T05:49:32.459Z,91.84
2023-03-25T05:52:01.770Z,92.07
2023-03-25T05:54:28.476Z,93.64
2023-03-25T05:56:54.966Z,93.44
2023-03-25T05:59:21.668Z,93.18
2023-03-25T06:01:49.975Z,94.70
2023-03-25T06:04:16.815Z,93.44
2023-03-25T06:06:43.453Z,92.90
2023-03-25T06:09:10.275Z,92.31
2023-03-25T06:11:39.729Z,88.36
2023-03-25T06:14:06.993Z,87.80
2023-03-25T06:16:33.899Z,90.55
2023-03-25T06:19:00.653Z,91.93
2023-03-25T06:21:29.168Z,92.97
2023-03-25T06:23:58.222Z,89.54
2023-03-25T06:26:25.266Z,86.64
2023-03-25T06:28:52.065Z,83.05
2023-03-25T06:31:22.547Z,86.16
2023-03-25T06:33:50.784Z,84.32
2023-03-25T06:36:20.296Z,84.04
2023-03-25T06:38:49.198Z,82.00
2023-03-25T06:41:21.063Z,79.08
2023-03-25T06:43:58.327Z,80.53
2023-03-25T06:46:27.848Z,81.23
2023-03-25T06:49:17.930Z,78.64
2023-03-25T06:51:44.400Z,79.67
2023-03-25T06:54:10.924Z,82.78
2023-03-25T06:56:37.730Z,83.85
2023-03-25T06:59:05.214Z,83.26
2023-03-25T07:01:31.855Z,83.85
2023-03-25T07:03:58.312Z,84.19
2023-03-25T07:06:25.055Z,84.46
2023-03-25T07:08:52.140Z,83.82
2023-03-25T07:11:26.852Z,85.57
2023-03-25T07:13:54.015Z,86.04
2023-03-25T07:16:22.127Z,86.14
2023-03-25T07:18:50.190Z,87.53
2023-03-25T07:21:17.200Z,86.97
2023-03-25T07:23:43.663Z,84.62
2023-03-25T07:26:10.582Z,80.22
2023-03-25T07:28:38.100Z,77.83
2023-03-25T07:31:10.341Z,81.23
2023-03-25T07:33:37.186Z,82.40
2023-03-25T07:38:33.358Z,85.41
2023-03-25T07:40:59.809Z,87.93
2023-03-25T07:43:26.419Z,86.18
2023-03-25T07:45:55.569Z,89.21
2023-03-25T07:48:22.780Z,88.37
2023-03-25T07:50:52.116Z,87.08
2023-03-25T07:53:18.608Z,84.37
2023-03-25T07:55:45.738Z,84.88
2023-03-25T07:58:12.646Z,87.17
2023-03-25T08:00:39.102Z,88.19
2023-03-25T08:03:06.565Z,87.77
2023-03-25T08:05:33.200Z,90.45
2023-03-25T08:08:00.196Z,85.30
2023-03-25T08:10:27.361Z,88.15
2023-03-25T08:12:54.003Z,85.28
2023-03-25T08:15:24.391Z,83.94
2023-03-25T08:17:54.318Z,86.04
2023-03-25T08:20:21.131Z,90.21
2023-03-25T08:22:48.039Z,88.34
2023-03-25T08:25:14.632Z,86.34
2023-03-25T08:27:41.311Z,87.82
2023-03-25T08:30:10.466Z,85.91
2023-03-25T08:32:38.432Z,85.42
2023-03-25T08:35:06.092Z,85.68
2023-03-25T08:37:37.768Z,85.02
2023-03-25T08:40:09.696Z,84.94
2023-03-25T08:42:38.289Z,89.91
2023-03-25T08:45:05.789Z,87.76
2023-03-25T08:47:32.498Z,86.31
2023-03-25T08:49:59.014Z,87.47
2023-03-25T08:52:25.515Z,87.65
2023-03-25T08:54:52.365Z,85.51
2023-03-25T08:57:18.820Z,89.11
2023-03-25T08:59:45.253Z,84.92
2023-03-25T09:02:12.695Z,84.50
2023-03-25T09:04:39.226Z,86.61
2023-03-25T09:07:12.540Z,87.77
2023-03-25T09:09:42.518Z,87.86
2023-03-25T09:12:09.467Z,92.34
2023-03-25T09:14:36.376Z,85.76
2023-03-25T09:17:03.476Z,85.82
2023-03-25T09:19:30.041Z,85.47
2023-03-25T09:21:56.443Z,88.57
2023-03-25T09:24:23.932Z,83.74
2023-03-25T09:26:50.570Z,82.21
2023-03-25T09:29:17.247Z,85.00
2023-03-25T09:31:43.774Z,82.66
2023-03-25T09:34:10.245Z,80.87
2023-03-25T09:36:37.151Z,79.64
2023-03-25T09:39:03.825Z,77.37
2023-03-25T09:42:17.787Z,78.24
2023-03-25T09:45:09.873Z,77.10
2023-03-25T09:47:41.213Z,81.43
2023-03-25T09:50:14.402Z,75.54
2023-03-25T09:53:14.674Z,77.15
2023-03-25T09:55:44.837Z,75.22
2023-03-25T09:58:23.844Z,75.50
2023-03-25T10:00:56.849Z,78.70
2023-03-25T10:03:35.545Z,77.71
2023-03-25T10:06:13.256Z,76.85
2023-03-25T10:09:12.125Z,77.57
2023-03-25T10:11:57.764Z,71.94
2023-03-25T10:14:36.400Z,78.67
2023-03-25T10:17:10.690Z,72.35
2023-03-25T10:20:30.437Z,71.37
2023-03-25T10:23:21.731Z,75.40
2023-03-25T10:25:56.146Z,75.74
2023-03-25T10:28:31.166Z,68.53
2023-03-25T10:30:57.658Z,68.49
2023-03-25T10:33:31.811Z,75.12
2023-03-25T10:36:00.385Z,68.73
2023-03-25T10:38:26.917Z,72.66
2023-03-25T10:41:26.815Z,69.76
2023-03-25T10:43:53.972Z,74.88
2023-03-25T10:46:32.536Z,72.26
2023-03-25T10:48:59.123Z,68.68
2023-03-25T10:51:28.755Z,73.21
2023-03-25T10:53:55.540Z,68.25
2023-03-25T10:56:26.389Z,72.54
2023-03-25T10:58:55.783Z,67.20
2023-03-25T11:01:39.032Z,66.50
2023-03-25T11:04:09.056Z,64.37
2023-03-25T11:06:42.219Z,68.68
2023-03-25T11:09:32.516Z,68.89
2023-03-25T11:12:06.352Z,67.14
2023-03-25T11:14:41.243Z,67.53
2023-03-25T11:17:14.871Z,67.35
2023-03-25T11:19:52.538Z,68.79
2023-03-25T11:22:24.520Z,72.61
2023-03-25T11:24:57.204Z,69.54
2023-03-25T11:27:26.498Z,72.66
2023-03-25T11:29:56.950Z,70.88
2023-03-25T11:32:31.760Z,66.57
2023-03-25T11:35:03.460Z,71.43
2023-03-25T11:37:32.817Z,65.74
2023-03-25T11:40:06.299Z,66.41
2023-03-25T11:42:40.067Z,66.32
2023-03-25T11:45:08.015Z,69.65
2023-03-25T11:47:38.044Z,64.65
2023-03-25T11:50:05.834Z,65.17
2023-03-25T11:52:45.400Z,67.40
2023-03-25T11:55:47.396Z,67.54
2023-03-25T11:58:21.880Z,67.10
2023-03-25T12:00:50.743Z,67.76
2023-03-25T12:03:20.721Z,67.74
2023-03-25T12:05:59.763Z,70.00
2023-03-25T12:08:30.273Z,71.50
2023-03-25T12:11:10.303Z,71.50
2023-03-25T12:14:04.089Z,70.33
2023-03-25T12:16:44.040Z,68.21
2023-03-25T12:19:10.392Z,68.57
2023-03-25T12:22:08.045Z,62.81
2023-03-25T12:24:59.468Z,62.41
2023-03-25T12:27:42.579Z,65.51
2023-03-25T12:30:25.417Z,66.82
2023-03-25T12:32:57.967Z,65.39
2023-03-25T12:35:49.814Z,69.20
2023-03-25T12:38:29.803Z,70.67
2023-03-25T12:41:16.606Z,71.16
2023-03-25T12:44:01.806Z,70.31
2023-03-25T12:46:46.936Z,70.03
2023-03-25T12:49:22.301Z,73.42
2023-03-25T12:52:18.462Z,69.09
2023-03-25T12:54:55.008Z,66.67
2023-03-25T12:57:45.479Z,67.24
2023-03-25T13:00:25.538Z,68.05
2023-03-25T13:03:13.887Z,66.25
2023-03-25T13:06:11.807Z,70.67
2023-03-25T13:09:05.939Z,65.56
2023-03-25T13:11:41.557Z,65.03
2023-03-25T13:14:31.137Z,64.60
2023-03-25T13:17:02.753Z,67.80
2023-03-25T13:19:32.816Z,67.10
2023-03-25T13:22:05.662Z,63.92
2023-03-25T13:24:45.783Z,62.75
2023-03-25T13:27:13.724Z,64.04
2023-03-25T13:29:47.391Z,67.74
2023-03-25T13:32:36.649Z,68.43
2023-03-25T13:35:09.034Z,62.90
2023-03-25T13:37:42.171Z,63.92
2023-03-25T13:40:34.073Z,65.13
2023-03-25T13:43:13.334Z,66.92
2023-03-25T13:45:51.045Z,67.20
2023-03-25T13:48:36.934Z,64.15
2023-03-25T13:51:04.387Z,65.62
2023-03-25T13:53:37.667Z,64.81
2023-03-25T13:56:07.120Z,67.32
2023-03-25T13:59:18.558Z,67.04
2023-03-25T14:02:15.910Z,66.49
2023-03-25T14:05:10.763Z,62.29
2023-03-25T14:07:53.310Z,65.99
2023-03-25T14:10:53.866Z,62.96
2023-03-25T14:13:35.376Z,63.98
2023-03-25T14:16:12.623Z,62.57
2023-03-25T14:18:46.697Z,64.91
2023-03-25T14:21:22.302Z,63.89
2023-03-25T14:23:59.730Z,63.41
2023-03-25T14:26:26.417Z,63.76
2023-03-25T14:28:57.778Z,61.90
2023-03-25T14:31:30.950Z,62.41
2023-03-25T14:34:00.686Z,63.90
2023-03-25T14:36:40.664Z,62.95
2023-03-25T14:39:29.574Z,65.25
2023-03-25T14:42:01.894Z,63.94
2023-03-25T14:44:34.230Z,65.63
2023-03-25T14:47:27.620Z,61.16
2023-03-25T14:50:06.599Z,61.74
2023-03-25T14:52:48.065Z,64.09
2023-03-25T14:55:40.915Z,62.28
2023-03-25T14:58:24.942Z,63.77
2023-03-25T15:01:04.238Z,62.56
2023-03-25T15:03:36.359Z,64.14
2023-03-25T15:06:04.401Z,63.07
2023-03-25T15:08:36.985Z,60.51
2023-03-25T15:11:09.131Z,62.57
2023-03-25T15:13:46.649Z,63.20
2023-03-25T15:16:37.654Z,60.61
2023-03-25T15:19:11.556Z,61.89
2023-03-25T15:21:56.826Z,61.58
2023-03-25T15:24:33.383Z,62.61
2023-03-25T15:27:06.368Z,60.60
2023-03-25T15:30:00.652Z,60.23
2023-03-25T15:32:50.887Z,60.98
2023-03-25T15:35:29.547Z,62.75
2023-03-25T15:38:34.740Z,61.67
2023-03-25T15:41:36.256Z,63.11
2023-03-25T15:44:39.944Z,65.28
2023-03-25T15:47:21.661Z,64.14
2023-03-25T15:49:54.174Z,64.08
2023-03-25T15:52:40.045Z,64.31
2023-03-25T15:55:14.538Z,64.60
2023-03-25T15:58:02.191Z,66.78
2023-03-25T16:00:50.794Z,66.63
2023-03-25T16:03:25.702Z,65.98
2023-03-25T16:05:56.441Z,66.97
2023-03-25T16:08:30.833Z,64.22
2023-03-25T16:10:57.321Z,67.12
2023-03-25T16:13:24.232Z,66.32
2023-03-25T16:15:55.584Z,62.38
2023-03-25T16:18:24.436Z,63.92
2023-03-25T16:21:00.931Z,65.70
2023-03-25T16:23:29.345Z,64.90
2023-03-25T16:25:56.498Z,65.84
2023-03-25T16:28:33.703Z,66.70
2023-03-25T16:31:02.719Z,68.04
2023-03-25T16:33:31.852Z,68.45
2023-03-25T16:36:04.197Z,66.47
2023-03-25T16:38:32.292Z,68.04
2023-03-25T16:41:12.893Z,68.27
2023-03-25T16:43:39.790Z,70.55
2023-03-25T16:46:08.671Z,70.46
2023-03-25T16:48:47.444Z,72.04
2023-03-25T16:51:25.482Z,70.29
2023-03-25T16:53:55.898Z,68.66
2023-03-25T16:56:38.996Z,67.68
2023-03-25T16:59:20.277Z,68.51
2023-03-25T17:01:55.672Z,68.56
2023-03-25T17:04:29.973Z,67.66
2023-03-25T17:07:01.111Z,68.51
2023-03-25T17:09:34.206Z,68.46
2023-03-25T17:12:02.612Z,68.90
2023-03-25T17:14:36.961Z,69.57
2023-03-25T17:17:19.253Z,71.91
2023-03-25T17:19:49.939Z,71.30
2023-03-25T17:22:32.255Z,72.63
2023-03-25T17:25:15.592Z,73.82
2023-03-25T17:27:43.447Z,74.61
2023-03-25T17:30:28.279Z,75.95
2023-03-25T17:33:10.345Z,74.27
2023-03-25T17:35:39.110Z,76.21
2023-03-25T17:38:06.086Z,77.05
2023-03-25T17:40:33.176Z,76.90
2023-03-25T17:43:00.121Z,77.05
2023-03-25T17:45:26.588Z,77.91
2023-03-25T17:47:53.104Z,79.36
2023-03-25T17:50:22.295Z,79.67
2023-03-25T17:52:48.871Z,81.14
2023-03-25T17:55:15.461Z,82.01
2023-03-25T17:57:42.444Z,82.58
2023-03-25T18:00:15.211Z,83.10
2023-03-25T18:02:41.669Z,82.59
2023-03-25T18:05:10.572Z,83.83
2023-03-25T18:07:37.232Z,85.03
2023-03-25T18:10:13.948Z,83.58
2023-03-25T18:12:41.485Z,84.32
2023-03-25T18:15:08.599Z,84.58
2023-03-25T18:17:35.405Z,85.09
2023-03-25T18:20:02.071Z,85.46
2023-03-25T18:22:28.515Z,84.75
2023-03-25T18:24:54.940Z,85.56
2023-03-25T18:27:27.805Z,85.08
2023-03-25T18:30:00.232Z,85.60
2023-03-25T18:32:27.069Z,85.61
2023-03-25T18:34:53.963Z,85.32
2023-03-25T18:37:20.749Z,85.83
2023-03-25T18:39:47.160Z,87.64
2023-03-25T18:42:13.635Z,88.47
2023-03-25T18:44:40.399Z,87.15
2023-03-25T18:47:08.582Z,87.71
2023-03-25T18:49:35.302Z,88.71
2023-03-25T18:52:03.165Z,88.95
2023-03-25T18:54:29.577Z,90.68
2023-03-25T18:56:56.719Z,91.62
2023-03-25T18:59:23.835Z,92.80
2023-03-25T19:01:50.908Z,92.82
2023-03-25T19:04:18.143Z,93.39
2023-03-25T19:06:44.715Z,93.26
2023-03-25T19:09:22.608Z,94.02
2023-03-25T19:11:49.629Z,94.64
2023-03-25T19:14:16.125Z,94.31
2023-03-25T19:16:48.107Z,94.08
2023-03-25T19:19:21.288Z,93.86
2023-03-25T19:21:47.916Z,94.64
2023-03-25T19:24:14.664Z,95.50
2023-03-25T19:26:41.512Z,95.06
2023-03-25T19:29:08.608Z,95.19
2023-03-25T19:31:35.103Z,94.30
2023-03-25T19:34:02.201Z,94.92
2023-03-25T19:36:28.635Z,94.27
2023-03-25T19:38:58.709Z,94.53
2023-03-25T19:41:25.291Z,95.31
2023-03-25T19:43:51.749Z,95.94
2023-03-25T19:46:19.088Z,96.52
2023-03-25T19:48:46.452Z,95.70
2023-03-25T19:51:12.965Z,95.27
2023-03-25T19:53:39.550Z,96.13
2023-03-25T19:56:06.295Z,95.22
2023-03-25T19:58:34.629Z,96.03
2023-03-25T20:01:01.510Z,95.82
2023-03-25T20:03:31.195Z,95.19
2023-03-25T20:05:59.889Z,96.41
2023-03-25T20:08:26.669Z,94.98
2023-03-25T20:10:53.738Z,94.68
2023-03-25T20:13:20.791Z,94.33
2023-03-25T20:15:48.833Z,94.73
2023-03-25T20:18:15.876Z,95.24
2023-03-25T20:20:42.571Z,94.01
2023-03-25T20:23:09.356Z,94.42
2023-03-25T20:25:36.400Z,94.83
2023-03-25T20:28:02.981Z,94.65
2023-03-25T20:30:29.504Z,94.01
2023-03-25T20:32:55.972Z,94.31
2023-03-25T20:35:22.625Z,95.00
2023-03-25T20:37:49.267Z,95.43
2023-03-25T20:40:17.646Z,94.87
2023-03-25T20:42:46.225Z,95.47
2023-03-25T20:45:15.128Z,95.16
2023-03-25T20:47:42.375Z,96.86
2023-03-25T20:50:10.774Z,96.52
2023-03-25T20:52:38.037Z,96.75
2023-03-25T20:55:05.722Z,96.94
2023-03-25T20:57:32.609Z,97.56
2023-03-25T20:59:59.173Z,96.91
2023-03-25T21:02:25.705Z,97.45
2023-03-25T21:04:55.136Z,97.84
2023-03-25T21:07:23.798Z,97.65
2023-03-25T21:09:50.300Z,97.65
2023-03-25T21:12:17.137Z,96.50
2023-03-25T21:14:43.790Z,96.53
2023-03-25T21:17:10.773Z,97.36
2023-03-25T21:19:37.492Z,97.78
2023-03-25T21:22:04.300Z,96.94
2023-03-25T21:24:34.291Z,96.79
2023-03-25T21:27:00.762Z,97.77
2023-03-25T21:29:27.490Z,97.80
2023-03-25T21:31:54.390Z,96.16
2023-03-25T21:34:22.131Z,97.97
2023-03-25T21:36:49.047Z,97.49
2023-03-25T21:39:15.689Z,97.62
2023-03-25T21:41:42.490Z,97.54
2023-03-25T21:44:10.101Z,98.34
2023-03-25T21:46:36.702Z,97.24
2023-03-25T21:49:03.897Z,96.48
2023-03-25T21:51:32.158Z,96.69
2023-03-25T21:53:59.676Z,97.45
2023-03-25T21:56:30.276Z,96.08
2023-03-25T21:58:57.490Z,97.16
2023-03-25T22:01:28.677Z,96.24
2023-03-25T22:03:57.430Z,97.34
2023-03-25T22:06:29.839Z,97.46
2023-03-25T22:08:57.137Z,96.67
2023-03-25T22:11:28.995Z,97.15
2023-03-25T22:13:55.905Z,97.53
2023-03-25T22:16:22.686Z,97.05
2023-03-25T22:18:49.514Z,96.92
2023-03-25T22:21:18.622Z,97.41
2023-03-25T22:23:47.288Z,97.83
2023-03-25T22:26:16.145Z,96.13
2023-03-25T22:28:43.451Z,98.13
2023-03-25T22:31:10.392Z,97.11
2023-03-25T22:33:37.741Z,98.09
2023-03-25T22:36:11.702Z,97.01
2023-03-25T22:38:51.299Z,98.02
2023-03-25T22:41:18.668Z,98.68
2023-03-25T22:43:46.342Z,97.96
2023-03-25T22:46:13.779Z,97.78
2023-03-25T22:48:40.894Z,98.73
2023-03-25T22:51:09.389Z,97.95
2023-03-25T22:53:35.888Z,97.44
2023-03-25T22:56:02.433Z,98.22
2023-03-25T22:58:30.908Z,97.92
2023-03-25T23:00:59.552Z,98.05
2023-03-25T23:03:27.390Z,97.34
2023-03-25T23:06:00.277Z,97.74
2023-03-25T23:08:32.212Z,97.18
2023-03-25T23:11:00.743Z,97.34
2023-03-25T23:13:29.982Z,98.77
2023-03-25T23:16:01.268Z,99.04
2023-03-25T23:18:28.603Z,97.73
2023-03-25T23:20:56.248Z,98.35
2023-03-25T23:23:24.541Z,98.06
2023-03-25T23:26:03.621Z,98.52
2023-03-25T23:28:34.245Z,100.00
2023-03-25T23:31:01.680Z,98.92
2023-03-25T23:33:28.258Z,98.88
2023-03-25T23:36:00.423Z,98.68
2023-03-25T23:38:27.761Z,99.01
2023-03-25T23:41:10.904Z,99.84
2023-03-25T23:43:37.779Z,100.00
2023-03-25T23:46:06.359Z,99.20
2023-03-25T23:48:40.509Z,100.00
2023-03-25T23:51:10.464Z,98.39
2023-03-25T23:53:39.178Z,98.83
2023-03-25T23:56:07.076Z,98.59
2023-03-25T23:58:34.202Z,99.26
